createdAt,value
2022-12-31T00:00:06.957Z,4.91
2022-12-31T00:02:59.929Z,4.89
2022-12-31T00:05:36.092Z,4.92
2022-12-31T00:08:10.587Z,4.93
2022-12-31T00:10:47.066Z,4.94
2022-12-31T00:13:20.388Z,4.96
2022-12-31T00:15:53.233Z,4.99
2022-12-31T00:18:27.192Z,4.99
2022-12-31T00:21:02.048Z,5.00
2022-12-31T00:23:35.205Z,5.05
2022-12-31T00:26:10.331Z,5.06
2022-12-31T00:28:46.664Z,5.08
2022-12-31T00:31:29.751Z,5.08
2022-12-31T00:34:03.422Z,5.07
2022-12-31T00:36:37.930Z,5.13
2022-12-31T00:39:11.720Z,5.15
2022-12-31T00:41:44.862Z,5.17
2022-12-31T00:44:17.554Z,5.16
2022-12-31T00:46:52.979Z,5.18
2022-12-31T00:49:26.021Z,5.21
2022-12-31T00:51:58.930Z,5.25
2022-12-31T00:54:31.924Z,5.28
2022-12-31T00:57:06.979Z,5.28
2022-12-31T00:59:40.306Z,5.29
2022-12-31T01:02:13.311Z,5.30
2022-12-31T01:04:46.467Z,5.33
2022-12-31T01:07:20.366Z,5.35
2022-12-31T01:09:53.933Z,5.37
2022-12-31T01:12:27.282Z,5.38
2022-12-31T01:15:02.525Z,5.39
2022-12-31T01:17:35.770Z,5.39
2022-12-31T01:20:10.329Z,5.40
2022-12-31T01:22:43.157Z,5.40
2022-12-31T01:25:16.323Z,5.41
2022-12-31T01:27:49.238Z,5.43
2022-12-31T01:30:22.039Z,5.46
2022-12-31T01:32:55.052Z,5.47
2022-12-31T01:35:28.344Z,5.49
2022-12-31T01:38:04.733Z,5.53
2022-12-31T01:40:41.894Z,5.56
2022-12-31T01:43:19.467Z,5.58
2022-12-31T01:45:55.389Z,5.58
2022-12-31T01:48:29.345Z,5.59
2022-12-31T01:51:02.877Z,5.60
2022-12-31T01:53:40.654Z,5.62
2022-12-31T01:56:14.257Z,5.64
2022-12-31T01:58:52.846Z,5.67
2022-12-31T02:01:32.428Z,5.68
2022-12-31T02:04:11.094Z,5.69
2022-12-31T02:06:48.111Z,5.70
2022-12-31T02:09:21.361Z,5.73
2022-12-31T02:11:53.974Z,5.75
2022-12-31T02:14:29.957Z,5.78
2022-12-31T02:17:10.151Z,5.81
2022-12-31T02:20:24.466Z,5.83
2022-12-31T02:23:29.628Z,5.81
2022-12-31T02:26:28.802Z,5.83
2022-12-31T02:29:24.570Z,5.82
2022-12-31T02:32:04.270Z,5.86
2022-12-31T02:34:46.326Z,5.92
2022-12-31T02:37:22.113Z,5.96
2022-12-31T02:39:55.754Z,6.02
2022-12-31T02:42:28.701Z,6.08
2022-12-31T02:45:01.630Z,6.13
2022-12-31T02:47:51.862Z,6.18
2022-12-31T02:50:55.366Z,6.21
2022-12-31T02:53:41.961Z,6.25
2022-12-31T02:56:22.168Z,6.28
2022-12-31T02:59:21.607Z,6.32
2022-12-31T03:02:16.927Z,6.36
2022-12-31T03:04:53.193Z,6.40
2022-12-31T03:07:28.913Z,6.44
2022-12-31T03:10:02.584Z,6.50
2022-12-31T03:12:49.976Z,6.55
2022-12-31T03:15:24.813Z,6.60
2022-12-31T03:18:05.315Z,6.66
2022-12-31T03:20:57.693Z,6.70
2022-12-31T03:23:35.601Z,6.73
2022-12-31T03:26:11.267Z,6.78
2022-12-31T03:28:47.960Z,6.83
2022-12-31T03:31:20.807Z,6.88
2022-12-31T03:33:53.632Z,6.92
2022-12-31T03:36:26.577Z,6.95
2022-12-31T03:38:59.572Z,6.97
2022-12-31T03:41:32.423Z,7.01
2022-12-31T03:44:05.292Z,7.07
2022-12-31T03:46:37.960Z,7.09
2022-12-31T03:49:10.947Z,7.11
2022-12-31T03:51:46.405Z,7.13
2022-12-31T03:54:19.274Z,7.16
2022-12-31T03:56:58.240Z,7.18
2022-12-31T03:59:33.577Z,7.21
2022-12-31T04:02:06.747Z,7.22
2022-12-31T04:04:39.893Z,7.25
2022-12-31T04:07:12.788Z,7.26
2022-12-31T04:09:45.794Z,7.28
2022-12-31T04:12:18.804Z,7.32
2022-12-31T04:14:51.639Z,7.34
2022-12-31T04:17:25.004Z,7.36
2022-12-31T04:19:57.982Z,7.37
2022-12-31T04:22:31.021Z,7.38
2022-12-31T04:25:05.349Z,7.40
2022-12-31T04:27:40.442Z,7.43
2022-12-31T04:30:17.663Z,7.44
2022-12-31T04:32:50.285Z,7.46
2022-12-31T04:35:23.302Z,7.47
2022-12-31T04:37:56.215Z,7.49
2022-12-31T04:40:29.185Z,7.50
2022-12-31T04:43:02.066Z,7.51
2022-12-31T04:45:34.984Z,7.53
2022-12-31T04:48:08.369Z,7.55
2022-12-31T04:50:41.197Z,7.58
2022-12-31T04:53:13.975Z,7.60
2022-12-31T04:55:48.755Z,7.63
2022-12-31T04:58:22.077Z,7.65
2022-12-31T05:00:56.618Z,7.68
2022-12-31T05:03:30.107Z,7.70
2022-12-31T05:06:06.454Z,7.72
2022-12-31T05:08:39.549Z,7.75
2022-12-31T05:11:13.410Z,7.76
2022-12-31T05:13:46.611Z,7.78
2022-12-31T05:16:19.970Z,7.77
2022-12-31T05:18:52.752Z,7.79
2022-12-31T05:21:26.998Z,7.83
2022-12-31T05:24:00.020Z,7.87
2022-12-31T05:26:32.903Z,7.89
2022-12-31T05:29:05.949Z,7.90
2022-12-31T05:31:38.785Z,7.91
2022-12-31T05:34:11.383Z,7.92
2022-12-31T05:36:44.475Z,7.94
2022-12-31T05:39:17.702Z,7.96
2022-12-31T05:41:50.375Z,7.97
2022-12-31T05:44:23.362Z,7.97
2022-12-31T05:46:56.540Z,7.98
2022-12-31T05:49:29.397Z,7.97
2022-12-31T05:52:02.108Z,7.97
2022-12-31T05:54:34.926Z,7.96
2022-12-31T05:57:08.222Z,7.97
2022-12-31T05:59:41.023Z,7.98
2022-12-31T06:02:13.813Z,8.01
2022-12-31T06:04:46.618Z,8.04
2022-12-31T06:07:20.401Z,8.06
2022-12-31T06:09:53.256Z,8.05
2022-12-31T06:12:26.393Z,8.06
2022-12-31T06:14:59.376Z,8.05
2022-12-31T06:17:32.729Z,8.07
2022-12-31T06:20:12.223Z,8.09
2022-12-31T06:22:46.007Z,8.09
2022-12-31T06:25:18.748Z,8.11
2022-12-31T06:27:51.673Z,8.12
2022-12-31T06:30:24.963Z,8.14
2022-12-31T06:32:57.857Z,8.15
2022-12-31T06:35:30.740Z,8.14
2022-12-31T06:38:03.856Z,8.14
2022-12-31T06:40:38.147Z,8.16
2022-12-31T06:43:11.867Z,8.17
2022-12-31T06:45:46.905Z,8.18
2022-12-31T06:48:20.001Z,8.20
2022-12-31T06:50:52.867Z,8.20
2022-12-31T06:53:25.880Z,8.22
2022-12-31T06:56:00.173Z,8.22
2022-12-31T06:58:36.309Z,8.22
2022-12-31T07:01:29.184Z,8.23
2022-12-31T07:04:20.244Z,8.21
2022-12-31T07:07:01.078Z,8.17
2022-12-31T07:09:39.686Z,8.22
2022-12-31T07:12:28.598Z,8.25
2022-12-31T07:15:06.834Z,8.24
2022-12-31T07:17:50.973Z,8.24
2022-12-31T07:20:25.411Z,8.24
2022-12-31T07:22:59.478Z,8.27
2022-12-31T07:25:35.284Z,8.29
2022-12-31T07:28:20.284Z,8.28
2022-12-31T07:31:04.262Z,8.30
2022-12-31T07:33:59.211Z,8.31
2022-12-31T07:36:48.307Z,8.31
2022-12-31T07:39:29.496Z,8.33
2022-12-31T07:42:10.741Z,8.36
2022-12-31T07:44:57.932Z,8.41
2022-12-31T07:47:32.142Z,8.45
2022-12-31T07:50:06.729Z,8.48
2022-12-31T07:52:40.874Z,8.52
2022-12-31T07:55:14.079Z,8.57
2022-12-31T07:57:57.477Z,8.60
2022-12-31T08:00:32.521Z,8.63
2022-12-31T08:03:18.621Z,8.65
2022-12-31T08:06:02.124Z,8.66
2022-12-31T08:08:46.736Z,8.70
2022-12-31T08:11:27.092Z,8.71
2022-12-31T08:14:03.882Z,8.73
2022-12-31T08:16:38.388Z,8.75
2022-12-31T08:19:18.344Z,8.79
2022-12-31T08:22:05.731Z,8.83
2022-12-31T08:24:50.372Z,8.85
2022-12-31T08:27:32.115Z,8.87
2022-12-31T08:30:10.504Z,8.89
2022-12-31T08:32:48.917Z,8.92
2022-12-31T08:35:29.884Z,8.94
2022-12-31T08:38:11.336Z,8.95
2022-12-31T08:40:56.419Z,9.00
2022-12-31T08:43:46.404Z,9.06
2022-12-31T08:46:25.462Z,9.08
2022-12-31T08:48:59.667Z,9.09
2022-12-31T08:51:33.168Z,9.12
2022-12-31T08:54:07.464Z,9.17
2022-12-31T08:56:50.665Z,9.20
2022-12-31T08:59:34.394Z,9.23
2022-12-31T09:02:28.148Z,9.26
2022-12-31T09:05:14.740Z,9.31
2022-12-31T09:07:56.179Z,9.36
2022-12-31T09:10:36.328Z,9.39
2022-12-31T09:13:19.905Z,9.43
2022-12-31T09:16:00.731Z,9.46
2022-12-31T09:18:36.573Z,9.49
2022-12-31T09:21:13.723Z,9.52
2022-12-31T09:23:52.566Z,9.54
2022-12-31T09:26:40.056Z,9.58
2022-12-31T09:29:21.842Z,9.62
2022-12-31T09:32:01.046Z,9.64
2022-12-31T09:34:39.954Z,9.69
2022-12-31T09:37:21.781Z,9.74
2022-12-31T09:39:56.376Z,9.77
2022-12-31T09:42:56.469Z,9.80
2022-12-31T09:46:04.481Z,9.84
2022-12-31T09:49:19.103Z,9.88
2022-12-31T09:52:05.045Z,9.88
2022-12-31T09:54:59.847Z,9.91
2022-12-31T09:57:44.452Z,9.96
2022-12-31T10:00:22.685Z,9.99
2022-12-31T10:03:25.404Z,10.00
2022-12-31T10:06:21.006Z,10.01
2022-12-31T10:09:30.229Z,10.01
2022-12-31T10:12:25.342Z,10.03
2022-12-31T10:15:32.067Z,10.05
2022-12-31T10:18:15.121Z,10.07
2022-12-31T10:21:04.194Z,10.10
2022-12-31T10:23:58.245Z,10.11
2022-12-31T10:26:53.348Z,10.12
2022-12-31T10:29:47.447Z,10.12
2022-12-31T10:32:31.321Z,10.18
2022-12-31T10:35:23.888Z,10.24
2022-12-31T10:38:14.465Z,10.31
2022-12-31T10:41:12.473Z,10.37
2022-12-31T10:44:15.635Z,10.40
2022-12-31T10:47:13.236Z,10.42
2022-12-31T10:50:18.513Z,10.43
2022-12-31T10:53:21.299Z,10.43
2022-12-31T10:56:15.162Z,10.46
2022-12-31T10:59:21.938Z,10.49
2022-12-31T11:02:14.549Z,10.52
2022-12-31T11:05:10.196Z,10.60
2022-12-31T11:07:56.934Z,10.68
2022-12-31T11:11:13.099Z,10.76
2022-12-31T11:14:10.383Z,10.83
2022-12-31T11:16:58.017Z,10.89
2022-12-31T11:19:38.662Z,10.95
2022-12-31T11:22:37.738Z,11.06
2022-12-31T11:25:30.436Z,11.17
2022-12-31T11:28:36.301Z,11.27
2022-12-31T11:31:34.052Z,11.35
2022-12-31T11:34:28.019Z,11.42
2022-12-31T11:37:31.279Z,11.46
2022-12-31T11:40:28.815Z,11.51
2022-12-31T11:43:12.564Z,11.56
2022-12-31T11:46:05.378Z,11.60
2022-12-31T11:48:46.478Z,11.63
2022-12-31T11:51:45.539Z,11.69
2022-12-31T11:54:52.481Z,11.73
2022-12-31T11:57:32.357Z,11.76
2022-12-31T12:00:17.101Z,11.82
2022-12-31T12:02:52.134Z,11.89
2022-12-31T12:05:26.965Z,11.96
2022-12-31T12:08:00.008Z,12.02
2022-12-31T12:10:46.712Z,12.06
2022-12-31T12:13:30.085Z,12.11
2022-12-31T12:16:08.846Z,12.17
2022-12-31T12:18:47.477Z,12.21
2022-12-31T12:21:26.453Z,12.25
2022-12-31T12:24:02.430Z,12.29
2022-12-31T12:26:39.546Z,12.33
2022-12-31T12:29:20.696Z,12.37
2022-12-31T12:32:01.570Z,12.39
2022-12-31T12:34:36.311Z,12.43
2022-12-31T12:37:23.180Z,12.49
2022-12-31T12:40:02.195Z,12.51
2022-12-31T12:42:35.374Z,12.55
2022-12-31T12:45:16.018Z,12.58
2022-12-31T12:47:51.980Z,12.62
2022-12-31T12:50:26.560Z,12.65
2022-12-31T12:53:29.587Z,12.71
2022-12-31T12:56:18.903Z,12.73
2022-12-31T12:59:08.887Z,12.76
2022-12-31T13:01:49.096Z,12.79
2022-12-31T13:04:48.272Z,12.81
2022-12-31T13:07:39.190Z,12.84
2022-12-31T13:10:30.625Z,12.86
2022-12-31T13:13:24.140Z,12.90
2022-12-31T13:16:06.444Z,12.93
2022-12-31T13:18:51.516Z,12.97
2022-12-31T13:21:36.831Z,13.01
2022-12-31T13:24:24.427Z,13.04
2022-12-31T13:27:05.106Z,13.08
2022-12-31T13:29:40.150Z,13.09
2022-12-31T13:32:19.331Z,13.13
2022-12-31T13:34:57.804Z,13.15
2022-12-31T13:37:38.604Z,13.17
2022-12-31T13:40:25.375Z,13.18
2022-12-31T13:43:03.759Z,13.21
2022-12-31T13:45:43.405Z,13.23
2022-12-31T13:48:28.865Z,13.22
2022-12-31T13:51:07.813Z,13.21
2022-12-31T13:53:50.212Z,13.19
2022-12-31T13:56:27.471Z,13.18
2022-12-31T13:59:06.925Z,13.19
2022-12-31T14:01:46.290Z,13.21
2022-12-31T14:04:26.530Z,13.21
2022-12-31T14:07:11.269Z,13.22
2022-12-31T14:09:44.225Z,13.21
2022-12-31T14:12:41.024Z,13.20
2022-12-31T14:15:25.218Z,13.18
2022-12-31T14:18:07.346Z,13.18
2022-12-31T14:20:48.472Z,13.18
2022-12-31T14:23:35.973Z,13.18
2022-12-31T14:26:14.332Z,13.14
2022-12-31T14:28:54.281Z,13.14
2022-12-31T14:31:38.782Z,13.12
2022-12-31T14:34:18.474Z,13.09
2022-12-31T14:37:02.998Z,13.10
2022-12-31T14:39:53.389Z,13.09
2022-12-31T14:42:34.213Z,13.07
2022-12-31T14:45:22.398Z,13.05
2022-12-31T14:47:58.507Z,13.04
2022-12-31T14:50:34.853Z,13.04
2022-12-31T14:53:23.832Z,13.06
2022-12-31T14:56:05.220Z,13.08
2022-12-31T14:58:47.989Z,13.08
2022-12-31T15:01:26.201Z,13.07
2022-12-31T15:03:59.985Z,13.08
2022-12-31T15:06:44.399Z,13.06
2022-12-31T15:09:32.864Z,13.05
2022-12-31T15:12:29.461Z,13.05
2022-12-31T15:15:21.662Z,13.04
2022-12-31T15:18:06.163Z,13.01
2022-12-31T15:21:03.411Z,13.06
2022-12-31T15:23:38.685Z,13.06
2022-12-31T15:26:26.298Z,13.09
2022-12-31T15:29:08.226Z,13.10
2022-12-31T15:31:49.421Z,13.08
2022-12-31T15:34:29.663Z,13.11
2022-12-31T15:37:05.311Z,13.09
2022-12-31T15:39:44.539Z,13.09
2022-12-31T15:42:49.760Z,13.09
2022-12-31T15:45:29.347Z,13.05
2022-12-31T15:48:04.602Z,13.03
2022-12-31T15:51:00.446Z,13.02
2022-12-31T15:53:39.778Z,13.02
2022-12-31T15:56:23.829Z,13.02
2022-12-31T15:59:03.386Z,13.01
2022-12-31T16:01:38.374Z,13.01
2022-12-31T16:04:21.221Z,13.02
2022-12-31T16:06:57.635Z,13.03
2022-12-31T16:09:34.205Z,13.02
2022-12-31T16:12:13.529Z,13.01
2022-12-31T16:14:51.659Z,12.96
2022-12-31T16:17:30.005Z,13.00
2022-12-31T16:20:22.625Z,13.01
2022-12-31T16:23:02.715Z,13.01
2022-12-31T16:25:38.763Z,13.01
2022-12-31T16:28:19.725Z,13.03
2022-12-31T16:31:02.688Z,13.02
2022-12-31T16:33:38.427Z,13.00
2022-12-31T16:36:25.083Z,12.99
2022-12-31T16:39:23.975Z,12.99
2022-12-31T16:42:16.631Z,12.94
2022-12-31T16:44:50.556Z,12.92
2022-12-31T16:50:27.439Z,12.90
2022-12-31T16:53:06.294Z,12.91
2022-12-31T16:55:39.881Z,12.94
2022-12-31T16:58:19.855Z,12.95
2022-12-31T17:00:54.305Z,12.97
2022-12-31T17:03:29.369Z,13.00
2022-12-31T17:06:13.899Z,13.03
2022-12-31T17:08:50.861Z,13.06
2022-12-31T17:11:39.917Z,13.08
2022-12-31T17:14:18.059Z,13.11
2022-12-31T17:17:06.346Z,13.13
2022-12-31T17:19:45.382Z,13.16
2022-12-31T17:22:32.803Z,13.18
2022-12-31T17:25:22.531Z,13.19
2022-12-31T17:28:00.927Z,13.22
2022-12-31T17:30:42.714Z,13.25
2022-12-31T17:33:34.305Z,13.29
2022-12-31T17:36:25.109Z,13.33
2022-12-31T17:39:33.981Z,13.37
2022-12-31T17:42:45.403Z,13.35
2022-12-31T17:45:23.468Z,13.40
2022-12-31T17:47:59.890Z,13.44
2022-12-31T17:50:32.914Z,13.47
2022-12-31T17:53:12.752Z,13.51
2022-12-31T17:55:47.344Z,13.53
2022-12-31T17:58:29.283Z,13.54
2022-12-31T18:01:09.016Z,13.56
2022-12-31T18:03:59.298Z,13.55
2022-12-31T18:06:37.299Z,13.53
2022-12-31T18:09:10.608Z,13.51
2022-12-31T18:11:43.956Z,13.50
2022-12-31T18:14:18.456Z,13.48
2022-12-31T18:16:51.221Z,13.47
2022-12-31T18:22:25.124Z,13.38
2022-12-31T18:24:57.868Z,13.36
2022-12-31T18:27:30.887Z,13.33
2022-12-31T18:30:05.116Z,13.29
2022-12-31T18:32:42.313Z,13.25
2022-12-31T18:35:57.701Z,13.22
2022-12-31T18:38:31.551Z,13.17
2022-12-31T18:41:23.373Z,13.10
2022-12-31T18:44:20.268Z,13.12
2022-12-31T18:46:53.214Z,13.08
2022-12-31T18:49:27.620Z,13.06
2022-12-31T18:52:00.271Z,13.02
2022-12-31T18:54:32.926Z,13.00
2022-12-31T18:57:22.994Z,12.97
2022-12-31T19:00:04.414Z,12.92
2022-12-31T19:02:40.553Z,12.87
2022-12-31T19:05:28.253Z,12.82
2022-12-31T19:08:01.170Z,12.81
2022-12-31T19:10:35.263Z,12.79
2022-12-31T19:13:30.568Z,12.76
2022-12-31T19:16:04.084Z,12.75
2022-12-31T19:18:40.030Z,12.75
2022-12-31T19:21:18.416Z,12.74
2022-12-31T19:23:52.038Z,12.73
2022-12-31T19:26:25.484Z,12.73
2022-12-31T19:28:58.983Z,12.75
2022-12-31T19:31:34.295Z,12.77
2022-12-31T19:34:08.027Z,12.79
2022-12-31T19:36:44.144Z,12.81
2022-12-31T19:39:19.547Z,12.81
2022-12-31T19:41:58.887Z,12.83
2022-12-31T19:44:32.663Z,12.85
2022-12-31T19:47:05.904Z,12.87
2022-12-31T19:49:38.738Z,12.92
2022-12-31T19:52:11.971Z,12.95
2022-12-31T19:54:45.151Z,12.95
2022-12-31T19:57:18.031Z,12.97
2022-12-31T19:59:51.633Z,12.98
2022-12-31T20:02:25.478Z,13.00
2022-12-31T20:04:59.237Z,13.03
2022-12-31T20:07:32.206Z,13.05
2022-12-31T20:10:08.147Z,13.07
2022-12-31T20:12:44.563Z,13.07
2022-12-31T20:15:21.713Z,13.09
2022-12-31T20:17:54.412Z,13.08
2022-12-31T20:20:29.201Z,13.14
2022-12-31T20:23:04.240Z,13.15
2022-12-31T20:25:36.889Z,13.20
2022-12-31T20:28:10.294Z,13.23
2022-12-31T20:30:44.390Z,13.26
2022-12-31T20:33:19.304Z,13.29
2022-12-31T20:35:52.850Z,13.31
2022-12-31T20:38:25.578Z,13.34
2022-12-31T20:41:03.249Z,13.36
2022-12-31T20:43:36.935Z,13.37
2022-12-31T20:46:16.577Z,13.40
2022-12-31T20:48:50.741Z,13.42
2022-12-31T20:51:24.534Z,13.44
2022-12-31T20:53:59.555Z,13.46
2022-12-31T20:56:34.556Z,13.49
2022-12-31T20:59:08.672Z,13.51
2022-12-31T21:02:19.508Z,13.52
2022-12-31T21:04:35.027Z,13.51
2022-12-31T21:07:08.041Z,13.47
2022-12-31T21:09:40.899Z,13.49
2022-12-31T21:12:33.463Z,13.49
2022-12-31T21:15:06.957Z,13.47
2022-12-31T21:17:39.750Z,13.45
2022-12-31T21:20:13.795Z,13.45
2022-12-31T21:22:49.181Z,13.47
2022-12-31T21:25:31.072Z,13.47
2022-12-31T21:28:03.667Z,13.46
2022-12-31T21:30:36.478Z,13.48
2022-12-31T21:33:09.551Z,13.48
2022-12-31T21:36:11.587Z,13.48
2022-12-31T21:38:44.372Z,13.41
2022-12-31T21:41:35.870Z,13.43
2022-12-31T21:44:11.065Z,13.41
2022-12-31T21:47:15.779Z,13.40
2022-12-31T21:49:36.367Z,13.40
2022-12-31T21:52:32.499Z,13.40
2022-12-31T21:55:31.823Z,13.37
2022-12-31T22:01:16.741Z,13.33
2022-12-31T22:03:50.149Z,13.32
2022-12-31T22:06:24.807Z,13.31
2022-12-31T22:08:58.823Z,13.34
2022-12-31T22:11:32.184Z,13.34
2022-12-31T22:14:04.918Z,13.33
2022-12-31T22:16:37.897Z,13.35
2022-12-31T22:19:11.025Z,13.33
2022-12-31T22:21:43.719Z,13.32
2022-12-31T22:24:16.558Z,13.31
2022-12-31T22:26:58.209Z,13.30
2022-12-31T22:29:50.901Z,13.27
2022-12-31T22:32:23.822Z,13.21
2022-12-31T22:34:56.628Z,13.23
2022-12-31T22:40:22.802Z,13.17
2022-12-31T22:43:02.482Z,13.20
2022-12-31T22:45:39.200Z,13.18
2022-12-31T22:48:11.910Z,13.16
2022-12-31T22:50:44.750Z,13.14
2022-12-31T22:53:45.130Z,13.13
2022-12-31T22:56:20.325Z,13.11
2022-12-31T22:59:15.080Z,13.09
2022-12-31T23:01:49.092Z,13.07
2022-12-31T23:04:25.034Z,13.07
2022-12-31T23:07:10.980Z,13.08
2022-12-31T23:10:01.381Z,13.08
2022-12-31T23:16:05.281Z,13.04
2022-12-31T23:18:59.169Z,13.02
2022-12-31T23:21:54.257Z,13.01
2022-12-31T23:24:30.977Z,13.00
2022-12-31T23:27:03.738Z,13.01
2022-12-31T23:29:45.671Z,13.03
2022-12-31T23:32:20.552Z,13.02
2022-12-31T23:34:55.786Z,13.01
2022-12-31T23:37:52.813Z,13.00
2022-12-31T23:40:34.490Z,12.96
2022-12-31T23:43:27.546Z,12.96
2022-12-31T23:46:00.233Z,12.97
2022-12-31T23:48:32.933Z,12.97
2022-12-31T23:51:05.912Z,12.97
2022-12-31T23:53:47.149Z,13.00
2022-12-31T23:56:23.933Z,12.99
2022-12-31T23:59:02.236Z,13.00
